Time;durP1;ratioP1;P1;durP2;ratioP2;P2;SDS_P1;SDS_P2;PMS_P1;PMS_P2;Temp;Humidity;BMP_temperature;BMP_pressure;BME280_temperature;BME280_humidity;BME280_pressure;Samples;Min_cycle;Max_cycle;Signal;HPM_P1;HPM_P2
2022/06/13 00:01:45;;;;;;;3.80;1.20;;;13.50;59.70;;;;;;5060760;28;20240;-82
2022/06/13 00:04:12;;;;;;;1.90;1.20;;;13.60;58.50;;;;;;5071061;28;20633;-87
2022/06/13 00:06:40;;;;;;;2.37;1.20;;;13.70;59.00;;;;;;5051611;28;20176;-83
2022/06/13 00:09:07;;;;;;;2.00;1.10;;;13.80;58.60;;;;;;5039742;28;20180;-86
2022/06/13 00:11:35;;;;;;;1.93;1.10;;;13.80;57.80;;;;;;5071314;28;20228;-82
2022/06/13 00:14:04;;;;;;;1.93;1.10;;;13.80;57.70;;;;;;5041655;28;20274;-80
2022/06/13 00:16:32;;;;;;;2.43;1.17;;;13.90;57.10;;;;;;5041964;28;20171;-80
2022/06/13 00:18:59;;;;;;;1.30;1.17;;;13.90;56.80;;;;;;5075140;28;20191;-78
2022/06/13 00:21:31;;;;;;;1.10;1.00;;;14.00;57.00;;;;;;5036296;28;20244;-79
2022/06/13 00:24:01;;;;;;;1.50;1.13;;;14.10;56.40;;;;;;5044022;28;20646;-86
2022/06/13 00:26:32;;;;;;;1.93;1.30;;;14.20;56.80;;;;;;5039582;28;20228;-87
2022/06/13 00:29:01;;;;;;;5.37;1.13;;;14.20;56.40;;;;;;5035987;28;20160;-88
2022/06/13 00:31:29;;;;;;;1.37;1.00;;;14.40;55.40;;;;;;5054890;28;20183;-88
2022/06/13 00:33:56;;;;;;;1.47;1.13;;;14.40;55.50;;;;;;5044367;28;20185;-82
2022/06/13 00:36:24;;;;;;;2.03;1.40;;;14.60;54.70;;;;;;5035110;28;20243;-83
2022/06/13 00:38:54;;;;;;;5.27;1.03;;;14.60;54.20;;;;;;5035924;28;20180;-80
2022/06/13 00:41:37;;;;;;;1.83;1.00;;;14.60;55.00;;;;;;5035198;28;20274;-78
2022/06/13 00:44:35;;;;;;;1.73;1.07;;;14.60;54.10;;;;;;5035966;28;20647;-78
2022/06/13 00:47:03;;;;;;;1.27;1.17;;;14.70;54.30;;;;;;5045543;28;20281;-78
2022/06/13 00:49:43;;;;;;;1.47;1.10;;;14.70;54.50;;;;;;5074197;28;20174;-78
2022/06/13 00:52:26;;;;;;;1.73;1.00;;;14.80;53.70;;;;;;5040393;28;20223;-83
2022/06/13 00:54:55;;;;;;;1.97;1.00;;;14.80;53.60;;;;;;5038654;28;20186;-84
2022/06/13 00:57:29;;;;;;;1.30;1.20;;;14.80;53.80;;;;;;5034886;28;20183;-79
2022/06/13 01:00:02;;;;;;;3.20;1.40;;;14.90;53.70;;;;;;5043882;28;20580;-83
2022/06/13 01:02:30;;;;;;;1.37;1.10;;;15.00;53.50;;;;;;5034342;28;20181;-78
2022/06/13 01:04:58;;;;;;;2.97;1.30;;;15.00;53.20;;;;;;5034617;28;20180;-87
2022/06/13 01:07:29;;;;;;;2.77;1.40;;;15.00;53.60;;;;;;5034686;28;20172;-80
2022/06/13 01:12:42;;;;;;;3.17;1.50;;;15.30;53.00;;;;;;5034476;28;20335;-89
2022/06/13 01:15:47;;;;;;;1.97;1.00;;;15.30;52.90;;;;;;5034366;28;20643;-78
2022/06/13 01:18:23;;;;;;;2.20;1.37;;;15.50;52.00;;;;;;5036826;28;20259;-85
2022/06/13 01:20:58;;;;;;;3.37;1.37;;;15.50;52.20;;;;;;5046322;28;20177;-86
2022/06/13 01:24:03;;;;;;;1.97;1.33;;;15.60;52.20;;;;;;5034156;28;20689;-84
2022/06/13 01:26:52;;;;;;;2.90;1.20;;;15.70;52.00;;;;;;5048153;28;20302;-87
2022/06/13 01:29:29;;;;;;;3.00;1.27;;;15.80;51.60;;;;;;5045910;28;20627;-79
2022/06/13 01:32:13;;;;;;;5.37;1.30;;;15.80;51.00;;;;;;5067204;28;20553;-85
2022/06/13 01:34:50;;;;;;;6.27;1.40;;;16.20;51.10;;;;;;5040195;28;20268;-82
2022/06/13 01:37:30;;;;;;;1.90;1.30;;;16.50;49.70;;;;;;5035759;28;20675;-78
2022/06/13 01:40:12;;;;;;;2.87;1.70;;;16.70;49.60;;;;;;5035037;28;20181;-77
2022/06/13 01:42:58;;;;;;;4.00;1.70;;;16.80;48.80;;;;;;5032295;28;20180;-77
2022/06/13 01:45:40;;;;;;;2.43;1.40;;;16.80;48.80;;;;;;5045466;28;20282;-80
2022/06/13 01:48:26;;;;;;;1.47;1.27;;;16.90;47.70;;;;;;5050000;28;20213;-77
2022/06/13 01:51:08;;;;;;;3.50;1.33;;;16.70;47.90;;;;;;5064253;28;20194;-80
2022/06/13 01:53:59;;;;;;;3.07;1.20;;;16.70;48.20;;;;;;5055915;28;20238;-81
2022/06/13 01:56:42;;;;;;;2.97;1.30;;;16.70;47.80;;;;;;5048688;28;20263;-82
2022/06/13 01:59:56;;;;;;;4.47;1.20;;;16.80;48.00;;;;;;5050557;28;20237;-85
2022/06/13 02:02:33;;;;;;;3.33;1.50;;;17.10;47.20;;;;;;5038208;28;20215;-85
2022/06/13 02:05:09;;;;;;;4.97;1.40;;;17.30;47.00;;;;;;5047442;28;20200;-87
2022/06/13 02:07:49;;;;;;;4.23;1.60;;;17.70;46.60;;;;;;5050596;28;20179;-86
2022/06/13 02:10:22;;;;;;;6.30;1.37;;;17.40;45.90;;;;;;5050048;28;20203;-89
2022/06/13 02:12:55;;;;;;;3.07;1.50;;;17.70;45.90;;;;;;5048493;28;20690;-90
2022/06/13 02:15:31;;;;;;;4.53;1.57;;;17.90;44.00;;;;;;5045716;28;20251;-79
2022/06/13 02:18:06;;;;;;;3.47;1.43;;;17.90;42.60;;;;;;5048218;28;20190;-87
2022/06/13 02:20:47;;;;;;;4.70;1.30;;;17.80;42.30;;;;;;5041569;28;20191;-88
2022/06/13 02:23:20;;;;;;;3.20;1.10;;;18.00;41.90;;;;;;5048285;28;20267;-78
2022/06/13 02:25:56;;;;;;;2.67;1.47;;;18.20;41.10;;;;;;5045900;28;20792;-88
2022/06/13 02:28:39;;;;;;;2.80;1.60;;;18.50;41.20;;;;;;5053342;28;20184;-90
2022/06/13 02:31:30;;;;;;;6.37;1.50;;;18.70;40.60;;;;;;5058615;28;20267;-85
2022/06/13 02:34:13;;;;;;;2.27;1.40;;;18.10;42.20;;;;;;5058663;28;20187;-87
2022/06/13 02:36:56;;;;;;;5.30;1.77;;;17.50;42.90;;;;;;5055336;28;20652;-90
2022/06/13 02:39:39;;;;;;;2.80;1.50;;;17.30;42.70;;;;;;5059489;28;20203;-89
2022/06/13 02:42:18;;;;;;;5.33;1.40;;;17.10;43.20;;;;;;5051811;28;20176;-85
2022/06/13 02:45:03;;;;;;;7.03;1.20;;;16.90;43.80;;;;;;5036580;28;20287;-92
2022/06/13 02:47:46;;;;;;;3.63;1.40;;;17.20;43.90;;;;;;5047057;28;20512;-86
2022/06/13 02:50:23;;;;;;;2.40;1.27;;;17.30;42.80;;;;;;5037404;28;20283;-88
2022/06/13 02:53:09;;;;;;;4.20;1.40;;;17.70;41.90;;;;;;5040471;28;20556;-85
2022/06/13 02:55:52;;;;;;;8.27;1.50;;;18.00;41.30;;;;;;5033244;28;20183;-88
2022/06/13 02:58:35;;;;;;;3.73;1.70;;;18.30;40.30;;;;;;5034923;28;20242;-87
2022/06/13 03:01:13;;;;;;;2.47;1.17;;;18.30;39.70;;;;;;5048314;28;20171;-89
2022/06/13 03:03:55;;;;;;;6.90;1.73;;;18.20;40.70;;;;;;5040756;28;20188;-88
2022/06/13 03:06:40;;;;;;;4.20;1.30;;;18.00;41.10;;;;;;5051494;28;20571;-84
2022/06/13 03:09:26;;;;;;;3.80;1.30;;;17.80;40.70;;;;;;5039093;28;20178;-84
2022/06/13 03:12:18;;;;;;;4.27;1.57;;;17.90;41.10;;;;;;5041748;28;20568;-89
2022/06/13 03:14:49;;;;;;;3.10;1.40;;;18.00;41.50;;;;;;5048162;28;20187;-85
2022/06/13 03:17:39;;;;;;;3.83;1.47;;;18.10;41.90;;;;;;5048872;28;20173;-83
2022/06/13 03:20:19;;;;;;;8.53;1.80;;;18.30;41.10;;;;;;5050226;28;20208;-77
2022/06/13 03:23:02;;;;;;;6.33;1.80;;;18.30;42.40;;;;;;5034509;28;20188;-86
2022/06/13 03:25:53;;;;;;;4.87;1.50;;;18.30;41.40;;;;;;5041137;28;20216;-88
2022/06/13 03:28:32;;;;;;;11.50;1.90;;;18.50;42.00;;;;;;5046520;28;20191;-85
2022/06/13 03:31:08;;;;;;;4.93;1.83;;;19.00;41.40;;;;;;5051868;28;20284;-87
2022/06/13 03:33:40;;;;;;;3.90;1.80;;;19.10;40.60;;;;;;5037762;28;20226;-81
2022/06/13 03:36:21;;;;;;;4.80;1.40;;;19.30;39.80;;;;;;5045032;28;20168;-86
2022/06/13 03:39:19;;;;;;;6.57;1.67;;;19.40;39.60;;;;;;5055694;28;20172;-79
2022/06/13 03:41:58;;;;;;;5.67;1.27;;;19.40;39.30;;;;;;5055305;28;20221;-85
2022/06/13 03:44:29;;;;;;;5.47;1.70;;;19.60;39.20;;;;;;5047533;28;20242;-87
2022/06/13 03:47:21;;;;;;;3.83;1.50;;;19.90;39.00;;;;;;5038015;28;20169;-84
2022/06/13 03:49:59;;;;;;;3.40;1.40;;;19.90;38.90;;;;;;5037873;28;20509;-85
2022/06/13 03:52:30;;;;;;;5.57;1.80;;;20.00;38.80;;;;;;5035453;28;20760;-85
2022/06/13 03:55:22;;;;;;;4.93;1.60;;;20.40;37.60;;;;;;5038906;28;20175;-86
2022/06/13 03:58:11;;;;;;;2.70;1.40;;;20.50;38.00;;;;;;5035915;28;20172;-87
2022/06/13 04:00:55;;;;;;;3.90;1.43;;;20.80;37.50;;;;;;5050031;28;20176;-82
2022/06/13 04:03:25;;;;;;;3.93;2.00;;;21.10;36.60;;;;;;5035660;28;20222;-90
2022/06/13 04:06:25;;;;;;;3.00;1.30;;;21.30;35.80;;;;;;5036380;28;20761;-84
2022/06/13 04:08:53;;;;;;;4.60;1.43;;;21.60;35.40;;;;;;5037358;28;20172;-86
2022/06/13 04:11:35;;;;;;;3.97;1.73;;;20.80;35.60;;;;;;5040301;28;20722;-81
2022/06/13 04:14:28;;;;;;;5.07;1.50;;;19.80;37.90;;;;;;5038286;28;20176;-83
2022/06/13 04:17:09;;;;;;;4.23;1.67;;;20.30;37.40;;;;;;5051289;28;20226;-86
2022/06/13 04:19:57;;;;;;;4.83;1.53;;;20.60;36.70;;;;;;5035287;28;20177;-86
2022/06/13 04:22:39;;;;;;;4.40;1.30;;;20.60;35.90;;;;;;5035028;28;20175;-84
2022/06/13 04:25:13;;;;;;;4.10;1.50;;;20.30;37.00;;;;;;5056261;28;21558;-84
2022/06/13 04:27:52;;;;;;;7.07;1.80;;;20.70;36.90;;;;;;5048292;28;20185;-82
2022/06/13 04:30:29;;;;;;;2.23;1.23;;;21.30;35.40;;;;;;5035119;28;20627;-83
2022/06/13 04:33:54;;;;;;;4.27;1.50;;;21.50;34.00;;;;;;5034564;28;20222;-84
2022/06/13 04:36:23;;;;;;;4.07;1.37;;;21.40;35.70;;;;;;5025711;28;20264;-83
2022/06/13 04:38:55;;;;;;;4.47;1.63;;;21.80;34.20;;;;;;5032522;28;20189;-86
2022/06/13 04:41:26;;;;;;;3.07;1.40;;;22.10;34.50;;;;;;5036856;28;20235;-84
2022/06/13 04:43:58;;;;;;;5.13;1.40;;;22.20;34.10;;;;;;5033257;28;20192;-83
2022/06/13 04:46:28;;;;;;;4.13;1.20;;;22.20;34.20;;;;;;5034321;28;20264;-79
2022/06/13 04:48:59;;;;;;;4.63;1.60;;;21.50;33.90;;;;;;5034175;28;20183;-84
2022/06/13 04:51:32;;;;;;;5.90;1.40;;;21.90;33.70;;;;;;5034349;28;20177;-82
2022/06/13 04:54:04;;;;;;;4.27;2.23;;;20.90;34.50;;;;;;5034476;28;20871;-80
2022/06/13 04:56:33;;;;;;;6.90;1.53;;;20.30;36.00;;;;;;5043257;28;20176;-78
2022/06/13 04:59:01;;;;;;;4.83;1.50;;;20.50;35.90;;;;;;5041290;28;20187;-81
2022/06/13 05:01:33;;;;;;;3.37;1.40;;;20.00;36.20;;;;;;5036188;28;20176;-79
2022/06/13 05:04:06;;;;;;;4.87;1.33;;;20.20;36.70;;;;;;5050462;28;20211;-78
2022/06/13 05:06:52;;;;;;;5.67;1.67;;;19.80;36.50;;;;;;5034087;28;20177;-79
2022/06/13 05:09:32;;;;;;;3.37;1.20;;;20.40;35.50;;;;;;5034379;28;20172;-84
2022/06/13 05:12:06;;;;;;;2.67;1.23;;;20.60;35.70;;;;;;5034277;28;20540;-86
2022/06/13 05:14:39;;;;;;;2.60;1.10;;;20.90;34.50;;;;;;5034338;28;20180;-86
2022/06/13 05:17:06;;;;;;;2.77;1.47;;;22.10;33.60;;;;;;5034233;28;20551;-83
2022/06/13 05:19:59;;;;;;;3.17;1.30;;;22.70;31.80;;;;;;5034252;28;20192;-82
2022/06/13 05:22:47;;;;;;;2.80;1.63;;;22.80;32.70;;;;;;5034012;28;20264;-84
2022/06/13 05:25:23;;;;;;;2.90;1.50;;;23.20;32.60;;;;;;5040410;28;20369;-82
2022/06/13 05:27:53;;;;;;;2.90;1.60;;;23.30;32.30;;;;;;5037394;28;20176;-84
2022/06/13 05:30:22;;;;;;;5.20;1.40;;;23.20;31.80;;;;;;5044467;28;20595;-81
2022/06/13 05:32:50;;;;;;;3.60;1.47;;;22.90;32.60;;;;;;5044435;28;20196;-82
2022/06/13 05:35:22;;;;;;;4.80;1.60;;;22.50;33.50;;;;;;5034392;28;20231;-81
2022/06/13 05:37:51;;;;;;;4.80;1.37;;;22.00;34.50;;;;;;5035070;28;20574;-82
2022/06/13 05:40:21;;;;;;;4.33;1.50;;;21.50;35.10;;;;;;5034107;28;20709;-89
2022/06/13 05:42:49;;;;;;;6.13;1.77;;;21.70;34.80;;;;;;5034210;28;20678;-87
2022/06/13 05:45:20;;;;;;;4.63;1.30;;;21.60;35.80;;;;;;5034190;28;20627;-86
2022/06/13 05:47:50;;;;;;;6.20;1.83;;;21.80;34.60;;;;;;5036220;28;20196;-83
2022/06/13 05:50:23;;;;;;;10.47;2.10;;;21.60;36.60;;;;;;5047046;28;20181;-79
2022/06/13 05:52:52;;;;;;;3.53;1.53;;;21.60;37.10;;;;;;5033554;28;20230;-77
2022/06/13 05:55:20;;;;;;;5.47;2.10;;;20.80;38.60;;;;;;5040520;28;20172;-78
2022/06/13 05:57:48;;;;;;;5.33;2.10;;;20.40;39.50;;;;;;5037194;28;20180;-81
2022/06/13 06:00:26;;;;;;;4.50;2.33;;;20.10;40.20;;;;;;5034565;28;20179;-83
2022/06/13 06:02:53;;;;;;;4.70;1.87;;;20.20;40.50;;;;;;5033317;28;20183;-79
2022/06/13 06:05:21;;;;;;;6.53;2.00;;;20.40;40.40;;;;;;5032927;28;20749;-81
2022/06/13 06:07:48;;;;;;;7.80;1.90;;;20.30;40.60;;;;;;5033320;28;20260;-84
2022/06/13 06:10:23;;;;;;;5.13;2.00;;;19.50;42.20;;;;;;5033597;28;20596;-81
2022/06/13 06:12:51;;;;;;;3.77;2.03;;;18.90;43.30;;;;;;5034581;28;20559;-80
2022/06/13 06:15:18;;;;;;;4.50;1.87;;;18.10;44.80;;;;;;5032811;28;20176;-82
2022/06/13 06:17:46;;;;;;;7.83;2.47;;;17.90;45.80;;;;;;5032650;28;20177;-81
2022/06/13 06:20:19;;;;;;;5.37;1.90;;;17.50;47.40;;;;;;5041642;28;20345;-82
2022/06/13 06:22:47;;;;;;;4.30;1.90;;;17.40;47.90;;;;;;5031650;28;20666;-83
2022/06/13 06:25:15;;;;;;;5.43;1.73;;;17.20;48.90;;;;;;5042235;28;20708;-82
2022/06/13 06:27:42;;;;;;;6.43;2.00;;;17.10;47.80;;;;;;5052743;28;20530;-81
2022/06/13 06:30:14;;;;;;;8.23;2.10;;;16.80;48.80;;;;;;5045432;28;20557;-82
2022/06/13 06:32:42;;;;;;;6.97;1.83;;;16.60;49.60;;;;;;5032796;28;20218;-82
2022/06/13 06:35:10;;;;;;;7.73;2.20;;;16.30;49.90;;;;;;5032499;28;20623;-82
2022/06/13 06:37:45;;;;;;;3.97;2.27;;;16.20;50.90;;;;;;5032872;28;20536;-81
2022/06/13 06:40:15;;;;;;;6.60;2.20;;;16.00;51.60;;;;;;5031192;28;20183;-80
2022/06/13 06:42:43;;;;;;;5.63;2.17;;;15.80;52.00;;;;;;5032969;28;20179;-82
2022/06/13 06:45:12;;;;;;;4.97;2.00;;;15.60;52.60;;;;;;5046808;28;20716;-83
2022/06/13 06:47:40;;;;;;;7.57;1.90;;;15.40;53.00;;;;;;5032723;28;20211;-84
2022/06/13 06:50:15;;;;;;;5.23;1.90;;;15.30;53.80;;;;;;5032422;28;20187;-84
2022/06/13 06:52:44;;;;;;;5.73;2.47;;;15.20;54.80;;;;;;5032395;28;20692;-83
2022/06/13 07:00:49;;;;;;;15.77;2.63;;;14.90;55.70;;;;;;5037587;28;20533;-82
2022/06/13 07:03:18;;;;;;;4.03;2.03;;;14.80;56.00;;;;;;5039109;28;20184;-83
2022/06/13 07:05:46;;;;;;;6.10;2.47;;;14.70;56.80;;;;;;5032023;28;20566;-83
2022/06/13 07:08:14;;;;;;;3.90;2.33;;;14.60;56.90;;;;;;5037802;28;20187;-81
2022/06/13 07:10:45;;;;;;;10.20;2.30;;;14.40;57.80;;;;;;5040899;28;20187;-81
2022/06/13 07:13:13;;;;;;;4.87;2.10;;;14.30;58.10;;;;;;5047037;28;20208;-80
2022/06/13 07:15:41;;;;;;;8.87;2.47;;;14.30;58.10;;;;;;5055643;28;20196;-81
2022/06/13 07:18:09;;;;;;;4.97;2.70;;;14.20;58.40;;;;;;5055940;28;20263;-81
2022/06/13 07:20:38;;;;;;;6.63;2.80;;;14.10;58.60;;;;;;5056028;28;20196;-79
2022/06/13 07:23:06;;;;;;;10.00;2.70;;;14.00;58.70;;;;;;5047914;28;20263;-82
2022/06/13 07:25:34;;;;;;;5.80;2.77;;;13.90;59.20;;;;;;5050285;28;20224;-81
2022/06/13 07:28:01;;;;;;;14.23;10.97;;;13.80;59.60;;;;;;5048155;28;20226;-81
2022/06/13 07:30:30;;;;;;;9.97;7.90;;;13.80;59.60;;;;;;5050301;28;20168;-83
2022/06/13 07:32:58;;;;;;;9.67;4.27;;;13.80;60.30;;;;;;5041994;28;20756;-80
2022/06/13 07:35:26;;;;;;;6.90;3.77;;;13.70;60.30;;;;;;5035334;28;20256;-84
2022/06/13 07:40:41;;;;;;;7.27;3.10;;;13.60;60.30;;;;;;5036073;28;20247;-83
2022/06/13 07:43:23;;;;;;;9.90;4.27;;;13.50;60.40;;;;;;5052316;28;20219;-83
2022/06/13 07:45:51;;;;;;;7.40;3.73;;;13.50;60.20;;;;;;5038436;28;20251;-84
2022/06/13 07:48:19;;;;;;;8.37;3.90;;;13.40;60.70;;;;;;5048502;28;20188;-82
2022/06/13 07:50:47;;;;;;;9.40;4.13;;;13.40;61.00;;;;;;5045193;28;20653;-83
2022/06/13 07:53:14;;;;;;;9.53;4.00;;;13.20;61.70;;;;;;5033907;28;20220;-83
2022/06/13 07:55:42;;;;;;;11.23;5.33;;;13.20;62.90;;;;;;5037221;28;20240;-82
2022/06/13 07:58:21;;;;;;;10.03;4.63;;;13.00;63.80;;;;;;5057799;28;20218;-82
2022/06/13 08:00:50;;;;;;;9.23;6.23;;;13.00;64.10;;;;;;5046896;28;20657;-82
2022/06/13 08:03:23;;;;;;;17.37;9.97;;;13.00;65.00;;;;;;5049081;28;20233;-81
2022/06/13 08:05:51;;;;;;;19.53;9.00;;;13.00;64.80;;;;;;5050679;28;20635;-81
2022/06/13 08:08:19;;;;;;;12.33;7.20;;;12.90;64.80;;;;;;5048067;28;20222;-82
2022/06/13 08:10:48;;;;;;;11.73;7.43;;;12.80;65.20;;;;;;5051748;28;20177;-82
2022/06/13 08:13:18;;;;;;;10.87;5.93;;;12.80;64.90;;;;;;5036529;28;20299;-81
2022/06/13 08:15:46;;;;;;;8.90;5.67;;;12.80;65.00;;;;;;5033987;28;20218;-80
2022/06/13 08:18:15;;;;;;;12.40;6.37;;;12.80;65.70;;;;;;5056995;28;20188;-79
2022/06/13 08:20:44;;;;;;;15.97;5.47;;;12.70;66.00;;;;;;5044184;28;20175;-81
2022/06/13 08:23:14;;;;;;;11.53;5.30;;;12.70;66.40;;;;;;5051738;28;20183;-82
2022/06/13 08:25:42;;;;;;;14.03;8.00;;;12.70;66.10;;;;;;5058587;28;20216;-83
2022/06/13 08:28:11;;;;;;;16.67;8.57;;;12.50;66.30;;;;;;5049546;28;20171;-81
2022/06/13 08:31:17;;;;;;;13.03;8.37;;;12.50;66.20;;;;;;5034782;28;20165;-79
2022/06/13 08:33:45;;;;;;;13.80;7.87;;;12.50;67.10;;;;;;5034237;28;20211;-80
2022/06/13 08:36:12;;;;;;;14.07;7.30;;;12.40;67.30;;;;;;5033729;28;20271;-82
2022/06/13 08:38:41;;;;;;;16.60;8.80;;;12.40;67.70;;;;;;5043250;28;20257;-81
2022/06/13 08:41:14;;;;;;;14.50;7.30;;;12.30;67.60;;;;;;5048796;28;20177;-79
2022/06/13 08:44:12;;;;;;;15.07;6.03;;;12.30;67.80;;;;;;5047536;28;20582;-81
2022/06/13 08:47:00;;;;;;;9.20;4.93;;;12.30;67.70;;;;;;5050350;28;20184;-82
2022/06/13 08:49:45;;;;;;;11.87;4.97;;;12.40;67.90;;;;;;5040033;28;20922;-81
2022/06/13 08:52:35;;;;;;;12.13;6.27;;;12.30;68.30;;;;;;5036125;28;20212;-81
2022/06/13 08:55:26;;;;;;;11.87;6.60;;;12.30;68.30;;;;;;5038930;28;20176;-81
2022/06/13 08:58:15;;;;;;;13.57;8.83;;;12.30;68.60;;;;;;5044925;28;20262;-81
2022/06/13 09:00:53;;;;;;;20.47;10.00;;;12.20;69.10;;;;;;5034479;28;20207;-82
2022/06/13 09:03:47;;;;;;;22.40;12.73;;;12.00;69.60;;;;;;5034023;28;20531;-82
2022/06/13 09:06:48;;;;;;;22.23;14.33;;;11.90;70.10;;;;;;5034554;28;20223;-81
2022/06/13 09:09:29;;;;;;;22.20;14.73;;;11.90;70.50;;;;;;5035270;28;20200;-81
2022/06/13 09:12:05;;;;;;;16.37;11.97;;;11.80;70.70;;;;;;5044510;28;20302;-80
2022/06/13 09:14:54;;;;;;;17.77;11.70;;;11.80;70.70;;;;;;5033937;28;20234;-82
2022/06/13 09:17:53;;;;;;;16.53;10.57;;;11.80;70.70;;;;;;5034117;28;20204;-82
2022/06/13 09:20:32;;;;;;;21.67;12.20;;;11.80;70.50;;;;;;5033594;28;20651;-83
2022/06/13 09:23:09;;;;;;;19.03;12.57;;;11.70;70.90;;;;;;5033881;28;20180;-82
2022/06/13 09:25:40;;;;;;;20.50;12.90;;;11.70;71.20;;;;;;5051196;28;20307;-83
2022/06/13 09:28:14;;;;;;;23.00;14.33;;;11.70;70.70;;;;;;5054098;28;20191;-79
2022/06/13 09:31:14;;;;;;;25.63;14.83;;;11.70;71.20;;;;;;5045795;28;20175;-82
2022/06/13 09:33:48;;;;;;;26.77;16.00;;;11.60;71.60;;;;;;5044305;28;20262;-83
2022/06/13 09:36:31;;;;;;;23.80;15.23;;;11.60;71.70;;;;;;5033435;28;20191;-81
2022/06/13 09:39:08;;;;;;;28.03;16.33;;;11.60;72.10;;;;;;5042473;28;20172;-83
2022/06/13 09:41:50;;;;;;;32.40;19.23;;;11.50;72.30;;;;;;5033358;28;20191;-82
2022/06/13 09:44:24;;;;;;;30.23;18.27;;;11.50;72.70;;;;;;5054146;28;20222;-83
2022/06/13 09:47:13;;;;;;;23.57;16.53;;;11.40;73.20;;;;;;5048807;28;20181;-83
2022/06/13 09:50:11;;;;;;;24.77;15.70;;;11.40;73.40;;;;;;5034041;28;20222;-82
2022/06/13 09:53:02;;;;;;;26.97;14.90;;;11.40;73.70;;;;;;5038577;28;20341;-83
2022/06/13 09:55:45;;;;;;;22.53;13.40;;;11.40;73.90;;;;;;5047079;28;20172;-82
2022/06/13 09:58:18;;;;;;;23.07;13.43;;;11.30;74.10;;;;;;5037371;28;20180;-82
2022/06/13 10:00:49;;;;;;;30.00;14.27;;;11.30;74.50;;;;;;5033231;28;20535;-83
2022/06/13 10:03:30;;;;;;;19.30;9.80;;;11.30;74.70;;;;;;5049614;28;20184;-82
2022/06/13 10:06:32;;;;;;;14.97;9.57;;;11.20;74.50;;;;;;5048002;28;20188;-83
2022/06/13 10:09:36;;;;;;;23.13;10.80;;;11.30;74.80;;;;;;5048931;28;20176;-82
2022/06/13 10:12:22;;;;;;;14.83;10.00;;;11.30;75.40;;;;;;5069388;28;20306;-83
2022/06/13 10:14:53;;;;;;;19.90;9.90;;;11.30;75.20;;;;;;5048250;28;20202;-84
2022/06/13 10:17:20;;;;;;;17.33;10.30;;;11.20;75.30;;;;;;5035549;28;20182;-82
2022/06/13 10:20:20;;;;;;;18.47;11.03;;;11.20;75.70;;;;;;5052773;28;20187;-83
2022/06/13 10:22:59;;;;;;;20.33;10.00;;;11.20;75.90;;;;;;5037361;28;20646;-84
2022/06/13 10:26:03;;;;;;;17.70;9.33;;;11.20;76.20;;;;;;5054233;28;20222;-83
2022/06/13 10:28:37;;;;;;;19.17;11.43;;;11.10;76.00;;;;;;5042130;28;20173;-82
2022/06/13 10:31:34;;;;;;;19.43;10.40;;;11.00;76.30;;;;;;5036699;28;20184;-82
2022/06/13 10:34:07;;;;;;;20.17;11.30;;;10.90;76.40;;;;;;5032725;28;20575;-84
2022/06/13 10:37:01;;;;;;;17.40;11.67;;;10.90;76.40;;;;;;5032687;28;20221;-81
2022/06/13 10:39:29;;;;;;;23.40;12.80;;;10.80;76.70;;;;;;5041214;28;20188;-82
2022/06/13 10:42:06;;;;;;;18.40;11.23;;;10.70;76.90;;;;;;5043809;28;20177;-82
2022/06/13 10:44:34;;;;;;;17.73;11.57;;;10.70;77.00;;;;;;5032678;28;20263;-82
2022/06/13 10:47:24;;;;;;;21.17;12.03;;;10.70;77.50;;;;;;5032412;28;20214;-82
2022/06/13 10:50:07;;;;;;;17.77;10.77;;;10.60;77.60;;;;;;5034283;28;20206;-81
2022/06/13 10:52:43;;;;;;;18.90;11.77;;;10.70;78.30;;;;;;5032357;28;20204;-85
2022/06/13 10:55:14;;;;;;;21.27;12.40;;;10.70;78.50;;;;;;5038569;28;20217;-82
2022/06/13 10:58:12;;;;;;;19.87;11.97;;;10.70;78.50;;;;;;5046118;28;20199;-82
2022/06/13 11:00:42;;;;;;;21.73;11.60;;;10.70;78.80;;;;;;5021519;28;20218;-82
2022/06/13 11:03:11;;;;;;;23.23;11.70;;;10.50;79.10;;;;;;5046687;28;20225;-83
2022/06/13 11:05:59;;;;;;;16.37;10.77;;;10.50;79.30;;;;;;5055938;28;20353;-83
2022/06/13 11:08:28;;;;;;;22.77;12.00;;;10.50;79.40;;;;;;5050237;28;20540;-83
2022/06/13 11:11:01;;;;;;;22.50;12.17;;;10.50;79.60;;;;;;5035117;28;20200;-82
2022/06/13 11:13:36;;;;;;;24.73;12.90;;;10.40;79.80;;;;;;5041749;28;20728;-83
2022/06/13 11:24:50;;;;;;;21.10;12.17;;;10.40;80.50;;;;;;5033928;28;20562;-82
2022/06/13 11:27:41;;;;;;;24.23;15.23;;;10.40;80.60;;;;;;5031703;28;20191;-81
2022/06/13 11:30:26;;;;;;;24.40;13.93;;;10.30;80.70;;;;;;5032033;28;20635;-81
2022/06/13 11:33:11;;;;;;;23.73;12.67;;;10.30;80.70;;;;;;5053434;28;20210;-81
2022/06/13 11:35:51;;;;;;;21.57;12.03;;;10.30;81.10;;;;;;5038352;28;20524;-81
2022/06/13 11:38:37;;;;;;;25.87;12.77;;;10.20;80.80;;;;;;5051401;28;20639;-81
2022/06/13 11:41:46;;;;;;;17.43;11.07;;;10.20;81.30;;;;;;5032008;28;20188;-81
2022/06/13 11:44:20;;;;;;;23.37;10.87;;;10.20;81.00;;;;;;5055421;28;20650;-80
2022/06/13 11:46:51;;;;;;;18.63;10.87;;;10.10;81.40;;;;;;5033679;28;20176;-81
2022/06/13 11:49:18;;;;;;;18.07;10.83;;;10.20;81.70;;;;;;5059510;28;20219;-81
2022/06/13 11:52:01;;;;;;;21.87;11.20;;;10.20;81.90;;;;;;5035915;28;20184;-80
2022/06/13 11:54:56;;;;;;;14.10;9.60;;;10.20;82.10;;;;;;5031854;28;20180;-81
2022/06/13 11:57:39;;;;;;;20.53;10.83;;;10.10;81.80;;;;;;5034330;28;20225;-79
2022/06/13 12:00:25;;;;;;;21.07;11.60;;;10.10;82.10;;;;;;5046919;28;20229;-78
2022/06/13 12:02:57;;;;;;;18.87;11.30;;;10.00;82.10;;;;;;5049876;28;20534;-80
2022/06/13 12:05:39;;;;;;;22.57;12.13;;;10.00;82.40;;;;;;5056977;28;20576;-81
2022/06/13 12:08:16;;;;;;;22.10;12.00;;;9.90;82.60;;;;;;5036695;28;20196;-78
2022/06/13 12:11:02;;;;;;;18.70;10.97;;;10.00;83.20;;;;;;5035322;28;20230;-82
2022/06/13 12:13:33;;;;;;;18.10;11.47;;;10.00;82.90;;;;;;5040130;28;20635;-82
2022/06/13 12:16:19;;;;;;;21.93;11.30;;;9.90;83.00;;;;;;5046650;28;20184;-82
2022/06/13 12:19:01;;;;;;;17.00;10.57;;;9.90;83.20;;;;;;5036151;28;20766;-79
2022/06/13 12:21:35;;;;;;;16.83;10.47;;;9.90;83.30;;;;;;5049868;28;20672;-83
2022/06/13 12:24:23;;;;;;;20.40;10.73;;;9.90;83.40;;;;;;5055767;28;20183;-83
2022/06/13 12:27:15;;;;;;;20.90;11.47;;;9.90;83.40;;;;;;5034470;28;20744;-81
2022/06/13 12:30:03;;;;;;;24.87;12.43;;;9.80;83.20;;;;;;5037532;28;20175;-83
2022/06/13 12:32:44;;;;;;;18.37;10.97;;;9.80;83.10;;;;;;5053849;28;20619;-83
2022/06/13 12:35:36;;;;;;;20.87;10.50;;;9.80;83.30;;;;;;5034686;28;20184;-82
2022/06/13 12:38:09;;;;;;;23.17;11.97;;;9.70;83.50;;;;;;5034634;28;20720;-83
2022/06/13 12:41:02;;;;;;;21.13;11.60;;;9.70;83.60;;;;;;5055345;28;20183;-82
2022/06/13 12:43:32;;;;;;;22.17;12.13;;;9.70;83.50;;;;;;5047992;28;20188;-79
2022/06/13 12:46:21;;;;;;;21.90;12.37;;;9.70;83.80;;;;;;5034635;28;20177;-83
2022/06/13 12:49:25;;;;;;;25.73;14.37;;;9.70;83.90;;;;;;5037588;28;20199;-83
2022/06/13 12:51:52;;;;;;;22.73;13.47;;;9.60;83.50;;;;;;5044965;28;20553;-80
2022/06/13 12:54:38;;;;;;;20.00;12.67;;;9.50;83.30;;;;;;5042403;28;20233;-83
2022/06/13 12:57:19;;;;;;;20.50;12.97;;;9.50;83.50;;;;;;5034127;28;20683;-83
2022/06/13 13:00:05;;;;;;;22.03;12.80;;;9.50;83.80;;;;;;5034579;28;20176;-83
2022/06/13 13:02:50;;;;;;;21.07;12.93;;;9.50;83.80;;;;;;5051681;28;20185;-85
2022/06/13 13:05:34;;;;;;;20.87;12.70;;;9.50;84.40;;;;;;5045074;28;20681;-83
2022/06/13 13:08:13;;;;;;;21.93;13.23;;;9.40;83.90;;;;;;5049993;28;20198;-81
2022/06/13 13:10:47;;;;;;;23.73;14.07;;;9.30;84.40;;;;;;5052665;28;20262;-81
2022/06/13 13:13:40;;;;;;;23.00;13.43;;;9.40;84.90;;;;;;5037886;28;20235;-82
2022/06/13 13:16:30;;;;;;;27.33;14.70;;;9.40;84.90;;;;;;5032740;28;21023;-83
2022/06/13 13:19:15;;;;;;;26.50;14.10;;;9.40;85.20;;;;;;5040285;28;20186;-86
2022/06/13 13:22:13;;;;;;;26.13;15.57;;;9.30;85.00;;;;;;5057375;28;20660;-81
2022/06/13 13:25:06;;;;;;;22.77;14.13;;;9.20;85.20;;;;;;5044951;28;20195;-82
2022/06/13 13:27:53;;;;;;;21.60;13.87;;;9.10;85.00;;;;;;5047320;28;20195;-83
2022/06/13 13:30:29;;;;;;;23.37;13.57;;;9.20;85.30;;;;;;5054027;28;20175;-83
2022/06/13 13:33:12;;;;;;;21.20;13.70;;;9.20;85.20;;;;;;5038066;28;20210;-82
2022/06/13 13:35:56;;;;;;;23.23;14.00;;;9.10;85.10;;;;;;5049665;28;20183;-83
2022/06/13 13:38:37;;;;;;;21.13;12.90;;;9.10;85.20;;;;;;5036032;28;20229;-84
2022/06/13 13:41:16;;;;;;;22.83;13.87;;;9.00;84.80;;;;;;5033467;28;20209;-84
2022/06/13 13:43:55;;;;;;;24.10;13.90;;;8.90;84.90;;;;;;5045407;28;20257;-83
2022/06/13 13:46:29;;;;;;;25.67;13.27;;;8.80;85.10;;;;;;5032199;28;20190;-82
2022/06/13 13:49:18;;;;;;;24.33;13.60;;;8.80;85.30;;;;;;5046527;28;20177;-79
2022/06/13 13:52:03;;;;;;;22.23;13.20;;;8.80;85.00;;;;;;5040782;28;20673;-85
2022/06/13 13:54:40;;;;;;;20.83;12.53;;;8.70;85.00;;;;;;5033390;28;20186;-85
2022/06/13 13:57:13;;;;;;;24.20;12.50;;;8.70;84.80;;;;;;5039520;28;20196;-87